Time;durP1;ratioP1;P1;durP2;ratioP2;P2;SDS_P1;SDS_P2;PMS_P1;PMS_P2;Temp;Humidity;BMP_temperature;BMP_pressure;BME280_temperature;BME280_humidity;BME280_pressure;Samples;Min_cycle;Max_cycle;Signal;HPM_P1;HPM_P2
2022/04/19 00:01:24;;;;;;;0.30;0.20;;;;;;;6.05;86.91;100038.72;5061139;28;20462;-51
2022/04/19 00:03:51;;;;;;;0.30;0.20;;;;;;;6.12;87.09;100035.06;5053546;28;20532;-50
2022/04/19 00:06:17;;;;;;;0.30;0.20;;;;;;;6.18;85.66;100037.63;5068183;28;20450;-50
2022/04/19 00:08:44;;;;;;;0.30;0.30;;;;;;;5.97;86.59;100037.94;5065036;28;20492;-50
2022/04/19 00:11:11;;;;;;;0.50;0.50;;;;;;;6.12;85.97;100029.78;5060239;28;20465;-50
2022/04/19 00:13:37;;;;;;;0.30;0.20;;;;;;;5.92;86.91;100032.72;5064355;28;20454;-50
2022/04/19 00:16:04;;;;;;;0.30;0.20;;;;;;;6.03;85.36;100031.69;5067387;28;20482;-50
2022/04/19 00:18:32;;;;;;;0.30;0.20;;;;;;;5.70;87.77;100030.34;5065251;28;20450;-50
2022/04/19 00:20:59;;;;;;;0.30;0.20;;;;;;;5.72;87.77;100018.03;5060927;28;20462;-50
2022/04/19 00:23:26;;;;;;;0.30;0.10;;;;;;;5.65;88.26;100022.53;5064131;28;20536;-50
2022/04/19 00:25:55;;;;;;;0.30;0.20;;;;;;;5.79;87.75;100022.34;5046049;28;20499;-50
2022/04/19 00:28:22;;;;;;;0.30;0.20;;;;;;;5.58;88.09;100026.97;5060110;28;20918;-50
2022/04/19 00:30:55;;;;;;;0.30;0.20;;;;;;;5.56;87.99;100023.50;5050570;28;20933;-50
2022/04/19 00:33:21;;;;;;;0.30;0.20;;;;;;;5.58;88.53;100026.13;5061830;28;20451;-50
2022/04/19 00:35:49;;;;;;;0.30;0.20;;;;;;;5.26;88.19;100027.38;5061422;28;20553;-50
2022/04/19 00:38:15;;;;;;;0.30;0.20;;;;;;;5.44;89.00;100023.66;5061596;28;20477;-50
2022/04/19 00:40:42;;;;;;;0.30;0.20;;;;;;;5.45;89.51;100024.53;5067369;28;20820;-50
2022/04/19 00:43:12;;;;;;;0.30;0.20;;;;;;;5.41;89.33;100012.28;5066915;28;20943;-50
2022/04/19 00:45:38;;;;;;;0.30;0.20;;;;;;;5.31;89.02;100017.66;5059837;28;20449;-50
2022/04/19 00:48:05;;;;;;;1.23;0.80;;;;;;;5.41;89.23;100007.00;5060742;28;20869;-50
2022/04/19 00:50:32;;;;;;;0.30;0.20;;;;;;;5.41;88.59;100015.78;5060758;28;21056;-50
2022/04/19 00:53:00;;;;;;;3.53;0.63;;;;;;;5.25;90.48;100009.81;5059513;28;20498;-50
2022/04/19 00:55:26;;;;;;;0.30;0.20;;;;;;;5.37;89.12;100010.59;5065963;28;20487;-50
2022/04/19 00:57:53;;;;;;;0.30;0.20;;;;;;;5.25;89.44;100003.69;5066974;28;20488;-50
2022/04/19 01:00:21;;;;;;;0.30;0.20;;;;;;;5.37;88.84;100010.59;5061549;28;20889;-50
2022/04/19 01:02:47;;;;;;;1.23;1.23;;;;;;;5.24;88.50;100005.44;5060694;28;20450;-50
2022/04/19 01:05:17;;;;;;;0.30;0.17;;;;;;;5.07;89.97;100007.38;5068790;28;20526;-50
2022/04/19 01:07:45;;;;;;;0.30;0.20;;;;;;;5.18;89.77;99999.38;5060377;28;20481;-50
2022/04/19 01:10:12;;;;;;;0.30;0.20;;;;;;;5.05;89.62;99999.50;5064431;28;20517;-50
2022/04/19 01:15:28;;;;;;;0.30;0.20;;;;;;;5.08;89.62;100009.16;5051021;28;20483;-51
2022/04/19 01:17:57;;;;;;;0.30;0.20;;;;;;;5.23;89.03;99992.31;5063331;28;20456;-50
2022/04/19 01:20:24;;;;;;;1.80;1.60;;;;;;;5.08;89.22;99992.47;5047307;28;20463;-51
2022/04/19 01:22:50;;;;;;;0.30;0.20;;;;;;;5.10;89.31;100002.09;5052945;28;20454;-51
2022/04/19 01:25:20;;;;;;;0.30;0.20;;;;;;;4.83;90.45;99992.72;5060165;28;20477;-51
2022/04/19 01:27:47;;;;;;;0.43;0.43;;;;;;;4.90;90.20;99999.66;5043229;28;20458;-51
2022/04/19 01:30:16;;;;;;;0.30;0.20;;;;;;;4.87;89.97;100002.34;5061841;28;20469;-51
2022/04/19 01:32:42;;;;;;;0.30;0.10;;;;;;;4.84;90.32;100002.38;5061675;28;20445;-50
2022/04/19 01:35:18;;;;;;;0.30;0.20;;;;;;;4.65;91.03;100000.78;5059898;28;20482;-51
2022/04/19 01:37:46;;;;;;;0.30;0.20;;;;;;;4.97;89.90;100000.50;5064202;28;20504;-51
2022/04/19 01:40:16;;;;;;;0.30;0.20;;;;;;;4.90;89.27;99999.66;5066364;28;20539;-50
2022/04/19 01:42:54;;;;;;;0.30;0.20;;;;;;;4.84;90.05;99996.25;5054850;28;20458;-51
2022/04/19 01:45:23;;;;;;;0.30;0.20;;;;;;;4.79;89.44;99993.63;5052589;28;20457;-50
2022/04/19 01:47:54;;;;;;;0.30;0.20;;;;;;;4.79;89.58;99996.25;5063603;28;20485;-50
2022/04/19 01:50:21;;;;;;;0.30;0.20;;;;;;;4.76;89.58;99994.53;5059386;28;20512;-50
2022/04/19 01:52:49;;;;;;;0.30;0.20;;;;;;;4.62;89.90;99985.91;5060012;28;20451;-51
2022/04/19 01:55:17;;;;;;;0.30;0.20;;;;;;;4.39;91.19;99998.41;5064482;28;20486;-51
2022/04/19 01:57:46;;;;;;;6.90;1.80;;;;;;;4.31;92.55;99987.94;5066044;28;20824;-50
2022/04/19 02:00:13;;;;;;;0.30;0.20;;;;;;;4.48;91.38;99985.16;5066164;28;20482;-50
2022/04/19 02:02:44;;;;;;;0.30;0.20;;;;;;;4.51;91.16;99984.25;5064588;28;20540;-51
2022/04/19 02:05:12;;;;;;;0.40;0.30;;;;;;;4.49;91.33;99983.41;5056185;28;20579;-50
2022/04/19 02:07:42;;;;;;;0.30;0.20;;;;;;;4.35;91.11;99979.13;5061117;28;20449;-50
2022/04/19 02:10:11;;;;;;;0.30;0.20;;;;;;;4.23;92.07;99976.59;5063531;28;20471;-50
2022/04/19 02:12:38;;;;;;;0.30;0.23;;;;;;;4.34;91.99;99969.50;5066344;28;20446;-50
2022/04/19 02:15:06;;;;;;;0.30;0.20;;;;;;;4.12;92.63;99974.06;5060379;28;20529;-50
2022/04/19 02:17:33;;;;;;;0.50;0.40;;;;;;;4.32;91.74;99973.03;5059520;28;20475;-50
2022/04/19 02:20:05;;;;;;;0.33;0.30;;;;;;;4.40;91.63;99974.72;5063081;28;20852;-50
2022/04/19 02:22:33;;;;;;;0.30;0.20;;;;;;;4.38;91.42;99963.31;5065246;28;20447;-50
2022/04/19 02:25:00;;;;;;;0.30;0.20;;;;;;;4.40;90.99;99972.09;5042088;28;21022;-50
2022/04/19 02:27:30;;;;;;;0.30;0.20;;;;;;;4.39;90.96;99959.81;5057397;28;20453;-50
2022/04/19 02:29:57;;;;;;;0.30;0.20;;;;;;;4.42;90.42;99965.03;5061196;28;20480;-50
2022/04/19 02:32:24;;;;;;;0.30;0.20;;;;;;;4.19;91.07;99971.38;5065427;28;20508;-50
2022/04/19 02:34:51;;;;;;;0.40;0.20;;;;;;;4.20;91.43;99966.09;5053086;28;20948;-50
2022/04/19 02:37:18;;;;;;;0.30;0.20;;;;;;;4.23;91.44;99966.06;5068940;28;20481;-50
2022/04/19 02:39:49;;;;;;;0.30;0.20;;;;;;;4.15;91.60;99960.88;5060338;28;20553;-50
2022/04/19 02:42:17;;;;;;;0.30;0.20;;;;;;;4.12;91.75;99960.03;5065792;28;20497;-50
2022/04/19 02:44:43;;;;;;;0.30;0.20;;;;;;;3.97;92.63;99965.41;5064878;28;20480;-51
2022/04/19 02:47:10;;;;;;;0.30;0.20;;;;;;;4.00;92.05;99958.38;5059041;28;20523;-50
2022/04/19 02:49:37;;;;;;;0.30;0.20;;;;;;;3.86;92.46;99955.84;5058538;28;21007;-50
2022/04/19 02:52:04;;;;;;;0.30;0.20;;;;;;;4.06;91.81;99960.06;5065717;28;21013;-50
2022/04/19 02:54:30;;;;;;;0.30;0.20;;;;;;;4.02;91.90;99959.25;5060404;28;20454;-51
2022/04/19 02:56:58;;;;;;;0.30;0.20;;;;;;;4.00;91.59;99957.50;5058831;28;21025;-51
2022/04/19 02:59:24;;;;;;;0.30;0.20;;;;;;;3.89;91.63;99959.34;5064928;28;20464;-51
2022/04/19 03:01:51;;;;;;;0.30;0.20;;;;;;;3.77;93.47;99962.91;5058790;28;20495;-51
2022/04/19 03:04:20;;;;;;;0.30;0.10;;;;;;;3.77;93.84;99961.16;5056668;28;20451;-51
2022/04/19 03:06:47;;;;;;;0.30;0.10;;;;;;;3.87;93.29;99951.47;5065917;28;20886;-50
2022/04/19 03:09:14;;;;;;;0.30;0.20;;;;;;;3.81;92.61;99964.63;5066007;28;20442;-51
2022/04/19 03:11:41;;;;;;;0.30;0.17;;;;;;;3.62;93.31;99961.25;5046396;28;20999;-51
2022/04/19 03:14:08;;;;;;;0.40;0.20;;;;;;;3.63;93.98;99962.13;5058767;28;20455;-51
2022/04/19 03:16:34;;;;;;;0.30;0.20;;;;;;;3.68;93.50;99963.84;5065214;28;20486;-51
2022/04/19 03:19:01;;;;;;;0.30;0.10;;;;;;;3.62;93.58;99958.63;5049907;28;20451;-50
2022/04/19 03:21:28;;;;;;;0.30;0.20;;;;;;;3.62;93.55;99958.63;5060195;28;20846;-50
2022/04/19 03:29:24;;;;;;;0.30;0.20;;;;;;;3.62;93.47;99949.88;5065009;28;20442;-51
2022/04/19 03:31:51;;;;;;;0.30;0.20;;;;;;;3.53;93.31;99948.16;5065477;28;20450;-50
2022/04/19 03:34:18;;;;;;;0.30;0.10;;;;;;;3.54;93.28;99948.16;5052684;28;20451;-50
2022/04/19 03:36:46;;;;;;;0.30;0.20;;;;;;;3.53;93.62;99954.28;5065140;28;20584;-51
2022/04/19 03:39:12;;;;;;;0.60;0.60;;;;;;;3.60;93.68;99952.50;5059738;28;20453;-51
2022/04/19 03:41:58;;;;;;;0.30;0.20;;;;;;;3.61;92.50;99954.25;5058660;28;20477;-50
2022/04/19 03:44:29;;;;;;;0.30;0.10;;;;;;;3.52;93.22;99951.66;5064990;28;21014;-51
2022/04/19 03:47:09;;;;;;;0.30;0.20;;;;;;;3.49;92.95;99952.56;5057691;28;20446;-51
2022/04/19 03:49:37;;;;;;;0.30;0.10;;;;;;;3.48;93.45;99950.81;5061492;28;21070;-51
2022/04/19 03:52:06;;;;;;;0.30;0.20;;;;;;;3.42;93.43;99952.59;5059266;28;20438;-51
2022/04/19 03:54:34;;;;;;;0.30;0.20;;;;;;;3.44;94.03;99953.47;5058077;28;20446;-51
2022/04/19 03:57:07;;;;;;;0.30;0.20;;;;;;;3.41;94.04;99950.84;5064074;28;20486;-51
2022/04/19 03:59:38;;;;;;;3.20;1.27;;;;;;;3.44;94.27;99948.22;5064824;28;20469;-51
2022/04/19 04:02:08;;;;;;;0.30;0.10;;;;;;;3.45;94.75;99942.97;5060477;28;20460;-50
2022/04/19 04:04:36;;;;;;;0.30;0.10;;;;;;;3.48;93.92;99952.56;5061882;28;20450;-50
2022/04/19 04:07:04;;;;;;;0.30;0.20;;;;;;;3.40;94.42;99956.97;5065159;28;20927;-51
2022/04/19 04:09:35;;;;;;;0.30;0.10;;;;;;;3.48;93.50;99955.19;5068649;28;21011;-50
2022/04/19 04:12:04;;;;;;;0.30;0.20;;;;;;;3.32;94.03;99956.16;5064113;28;20443;-51
2022/04/19 04:14:30;;;;;;;0.30;0.20;;;;;;;3.20;93.82;99955.34;5067079;28;20463;-51
2022/04/19 04:16:57;;;;;;;0.30;0.20;;;;;;;3.15;94.93;99962.38;5058635;28;20911;-51
2022/04/19 04:19:24;;;;;;;0.30;0.20;;;;;;;3.22;94.76;99956.19;5057209;28;20443;-51
2022/04/19 04:21:51;;;;;;;0.30;0.10;;;;;;;3.24;94.83;99969.31;5066416;28;20464;-51
2022/04/19 04:24:17;;;;;;;0.30;0.20;;;;;;;3.27;95.27;99970.16;5061531;28;20500;-50
2022/04/19 04:26:44;;;;;;;0.30;0.10;;;;;;;3.26;95.56;99970.19;5055687;28;20502;-50
2022/04/19 04:29:11;;;;;;;0.30;0.20;;;;;;;3.22;95.24;99971.97;5066337;28;20499;-50
2022/04/19 04:31:38;;;;;;;0.60;0.60;;;;;;;3.24;95.01;99972.81;5057861;28;20474;-51
2022/04/19 04:34:06;;;;;;;0.30;0.10;;;;;;;3.39;94.01;99968.38;5047940;28;20454;-51
2022/04/19 04:36:33;;;;;;;0.30;0.10;;;;;;;3.31;93.96;99970.19;5060206;28;20998;-51
2022/04/19 04:38:59;;;;;;;0.30;0.13;;;;;;;3.28;95.91;99971.03;5060057;28;20866;-51
2022/04/19 04:41:26;;;;;;;0.30;0.17;;;;;;;3.30;95.75;99971.94;5062940;28;20474;-50
2022/04/19 04:43:53;;;;;;;0.30;0.20;;;;;;;3.48;94.96;99976.22;5067946;28;20450;-51
2022/04/19 04:51:49;;;;;;;0.30;0.20;;;;;;;3.42;94.37;99966.59;5040637;28;20481;-51
2022/04/19 04:54:16;;;;;;;0.30;0.20;;;;;;;3.55;93.86;99965.66;5051796;28;20522;-51
2022/04/19 04:56:43;;;;;;;0.30;0.30;;;;;;;3.46;94.10;99967.47;5067851;28;20544;-51
2022/04/19 04:59:09;;;;;;;0.30;0.10;;;;;;;3.37;95.00;99970.13;5065615;28;20481;-51
2022/04/19 05:01:38;;;;;;;0.30;0.20;;;;;;;3.43;95.57;99968.38;5060888;28;20484;-51
2022/04/19 05:04:05;;;;;;;0.30;0.17;;;;;;;3.57;96.30;99973.56;5062210;28;20469;-51
2022/04/19 05:06:31;;;;;;;0.30;0.10;;;;;;;3.59;96.03;99970.91;5064138;28;20485;-51
2022/04/19 05:08:58;;;;;;;0.30;0.20;;;;;;;3.68;96.21;99969.09;5065272;28;20978;-50
2022/04/19 05:11:24;;;;;;;0.30;0.20;;;;;;;4.06;95.26;99967.97;5060807;28;20470;-50
2022/04/19 05:13:51;;;;;;;0.20;0.10;;;;;;;4.35;93.50;99968.59;5062511;28;20450;-50
2022/04/19 05:16:18;;;;;;;0.30;0.20;;;;;;;5.09;90.67;99973.16;5067535;28;20878;-51
2022/04/19 05:18:45;;;;;;;0.30;0.20;;;;;;;5.73;87.76;99967.03;5065515;28;20453;-51
2022/04/19 05:21:11;;;;;;;0.30;0.20;;;;;;;5.89;87.15;99968.53;5054226;28;20470;-51
2022/04/19 05:23:38;;;;;;;0.30;0.20;;;;;;;6.21;85.13;99963.69;5054773;28;20459;-51
2022/04/19 05:26:04;;;;;;;0.30;0.17;;;;;;;6.19;85.32;99968.13;5065448;28;20808;-52
2022/04/19 05:28:31;;;;;;;0.30;0.13;;;;;;;6.46;85.01;99973.84;5043854;28;20454;-52
2022/04/19 05:30:58;;;;;;;0.30;0.10;;;;;;;6.56;81.91;99970.13;5058597;28;20474;-51
2022/04/19 05:33:24;;;;;;;0.30;0.10;;;;;;;7.15;80.49;99975.22;5061389;28;20546;-52
2022/04/19 05:35:52;;;;;;;0.30;0.20;;;;;;;7.55;79.12;99972.63;5066414;28;20476;-50
2022/04/19 05:38:18;;;;;;;0.30;0.20;;;;;;;7.59;78.30;99972.53;5066457;28;20474;-50
2022/04/19 05:40:45;;;;;;;0.30;0.20;;;;;;;7.75;77.67;99974.84;5059412;28;20503;-49
2022/04/19 05:43:11;;;;;;;0.33;0.23;;;;;;;8.18;77.25;99980.88;5059266;28;20861;-50
2022/04/19 05:45:39;;;;;;;0.30;0.20;;;;;;;8.59;74.65;99984.31;5035589;28;20455;-49
2022/04/19 05:48:06;;;;;;;0.47;0.47;;;;;;;8.72;74.62;99977.78;5056677;28;20949;-50
2022/04/19 05:50:33;;;;;;;0.30;0.20;;;;;;;8.82;73.61;99979.31;5065920;28;20934;-50
2022/04/19 05:53:00;;;;;;;0.30;0.30;;;;;;;9.11;72.91;99978.50;5066226;28;20499;-52
2022/04/19 05:55:26;;;;;;;0.30;0.20;;;;;;;9.05;73.75;99983.13;5054326;28;20481;-50
2022/04/19 05:57:53;;;;;;;0.37;0.27;;;;;;;9.18;72.54;99980.09;5053870;28;20479;-50
2022/04/19 06:00:20;;;;;;;0.30;0.20;;;;;;;8.87;72.83;99981.81;5065429;28;20529;-50
2022/04/19 06:05:31;;;;;;;0.47;0.37;;;;;;;8.77;73.79;99996.22;5054001;28;20520;-50
2022/04/19 06:07:58;;;;;;;0.30;0.20;;;;;;;8.51;75.82;99983.66;5066127;28;20485;-49
2022/04/19 06:10:24;;;;;;;0.30;0.20;;;;;;;8.70;75.37;99987.56;5053407;28;20889;-51
2022/04/19 06:12:51;;;;;;;0.30;0.20;;;;;;;8.57;74.66;99981.72;5062962;28;20447;-51
2022/04/19 06:15:18;;;;;;;0.30;0.20;;;;;;;8.55;75.82;99988.84;5054809;28;20941;-50
2022/04/19 06:17:45;;;;;;;0.30;0.20;;;;;;;8.50;75.83;99988.09;5062836;28;20509;-50
2022/04/19 06:20:12;;;;;;;0.30;0.20;;;;;;;8.40;76.20;99991.00;5048607;28;20495;-50
2022/04/19 06:22:38;;;;;;;0.30;0.20;;;;;;;8.26;76.60;99986.00;5063482;28;20446;-50
2022/04/19 06:25:06;;;;;;;0.30;0.20;;;;;;;8.00;77.49;99984.84;5063110;28;20942;-50
2022/04/19 06:27:32;;;;;;;0.30;0.20;;;;;;;8.28;76.78;99987.69;5044047;28;20951;-50
2022/04/19 06:29:59;;;;;;;0.30;0.20;;;;;;;8.42;78.33;99983.88;5054037;28;20467;-50
2022/04/19 06:32:26;;;;;;;0.60;0.60;;;;;;;8.60;76.47;99983.41;5054367;28;20454;-50
2022/04/19 06:34:55;;;;;;;0.30;0.20;;;;;;;8.59;76.92;99982.53;5071746;28;20454;-50
2022/04/19 06:37:22;;;;;;;0.30;0.20;;;;;;;8.74;74.79;99975.09;5058612;28;20521;-51
2022/04/19 06:39:49;;;;;;;0.30;0.20;;;;;;;9.18;74.52;99972.16;5059530;28;20478;-50
2022/04/19 06:42:16;;;;;;;0.30;0.20;;;;;;;9.10;73.79;99978.56;5065377;28;20478;-51
2022/04/19 06:44:44;;;;;;;0.30;0.20;;;;;;;9.09;73.13;99982.13;5061972;28;20446;-51
2022/04/19 06:47:11;;;;;;;0.30;0.20;;;;;;;8.86;75.57;99982.75;5065218;28;20508;-52
2022/04/19 06:49:38;;;;;;;0.30;0.20;;;;;;;9.19;75.15;99983.63;5064898;28;20827;-51
2022/04/19 06:52:06;;;;;;;0.30;0.20;;;;;;;9.44;72.70;99979.31;5058847;28;20452;-52
2022/04/19 06:54:33;;;;;;;0.30;0.20;;;;;;;9.52;72.93;99984.44;5043097;28;20515;-51
2022/04/19 06:57:00;;;;;;;0.30;0.20;;;;;;;9.26;74.02;99989.59;5047031;28;20832;-51
2022/04/19 06:59:26;;;;;;;0.30;0.20;;;;;;;9.53;74.59;99980.84;5063903;28;20482;-51
2022/04/19 07:01:53;;;;;;;0.30;0.20;;;;;;;9.01;75.67;99974.38;5047321;28;20984;-51
2022/04/19 07:04:20;;;;;;;0.30;0.20;;;;;;;9.43;75.29;99976.72;5060362;28;20461;-51
2022/04/19 07:06:46;;;;;;;0.30;0.20;;;;;;;9.59;74.76;99970.03;5059445;28;20446;-52
2022/04/19 07:09:13;;;;;;;2.93;1.90;;;;;;;9.89;74.41;99970.06;5058102;28;20490;-52
2022/04/19 07:11:40;;;;;;;0.53;0.53;;;;;;;9.86;71.82;99960.38;5063702;28;20803;-52
2022/04/19 07:14:06;;;;;;;0.40;0.30;;;;;;;9.94;72.70;99961.03;5065259;28;20446;-52
2022/04/19 07:16:33;;;;;;;0.30;0.20;;;;;;;10.34;71.41;99959.78;5060096;28;21150;-52
2022/04/19 07:18:59;;;;;;;0.30;0.20;;;;;;;10.51;71.93;99960.06;5057199;28;20446;-52
2022/04/19 07:27:20;;;;;;;0.50;0.50;;;;;;;10.14;72.21;99959.50;5045956;28;20448;-52
2022/04/19 07:29:46;;;;;;;0.30;0.20;;;;;;;10.71;70.45;99961.22;5060053;28;20462;-52
2022/04/19 07:32:13;;;;;;;0.30;0.20;;;;;;;10.74;70.07;99959.31;5058222;28;20449;-52
2022/04/19 07:34:39;;;;;;;0.30;0.20;;;;;;;11.08;69.25;99956.31;5061719;28;20496;-52
2022/04/19 07:37:06;;;;;;;0.30;0.20;;;;;;;10.80;69.34;99961.75;5065423;28;20490;-52
2022/04/19 07:39:33;;;;;;;0.30;0.20;;;;;;;11.31;69.12;99960.81;5065848;28;20470;-52
2022/04/19 07:42:00;;;;;;;0.40;0.30;;;;;;;11.44;67.35;99961.22;5061775;28;20562;-52
2022/04/19 07:44:31;;;;;;;0.50;0.50;;;;;;;11.01;65.69;99962.78;5064238;28;20831;-52
2022/04/19 07:46:57;;;;;;;4.63;1.03;;;;;;;11.25;66.42;99955.72;5067748;28;20434;-52
2022/04/19 07:49:24;;;;;;;0.40;0.40;;;;;;;11.38;66.91;99956.13;5064070;28;20450;-53
2022/04/19 07:51:51;;;;;;;0.30;0.20;;;;;;;11.52;66.88;99951.16;5068440;28;20446;-52
2022/04/19 07:54:18;;;;;;;0.30;0.20;;;;;;;11.80;65.93;99946.53;5055544;28;20477;-52
2022/04/19 07:56:45;;;;;;;0.40;0.30;;;;;;;12.05;64.33;99953.53;5068367;28;20995;-52
2022/04/19 07:59:11;;;;;;;0.30;0.20;;;;;;;11.87;64.42;99949.81;5066890;28;20503;-52
2022/04/19 08:01:38;;;;;;;0.30;0.20;;;;;;;12.09;64.74;99945.38;5061500;28;20473;-52
2022/04/19 08:04:05;;;;;;;0.30;0.20;;;;;;;12.26;64.24;99949.16;5063143;28;20450;-52
2022/04/19 08:06:31;;;;;;;0.30;0.20;;;;;;;12.14;64.57;99946.06;5068315;28;20508;-52
2022/04/19 08:08:58;;;;;;;0.30;0.20;;;;;;;12.48;60.90;99947.34;5066907;28;20450;-52
2022/04/19 08:11:26;;;;;;;0.50;0.50;;;;;;;12.71;60.70;99939.22;5061341;28;20474;-53
2022/04/19 08:13:53;;;;;;;0.60;0.60;;;;;;;12.37;62.15;99944.25;5062652;28;20446;-52
2022/04/19 08:16:20;;;;;;;0.30;0.20;;;;;;;12.78;60.16;99942.50;5068150;28;20447;-52
2022/04/19 08:18:46;;;;;;;0.40;0.30;;;;;;;12.95;59.56;99939.97;5067407;28;20489;-52
2022/04/19 08:21:13;;;;;;;0.30;0.20;;;;;;;13.10;58.97;99934.88;5061249;28;20466;-52
2022/04/19 08:23:40;;;;;;;0.50;0.50;;;;;;;13.07;59.81;99935.88;5061940;28;20447;-52
2022/04/19 08:26:06;;;;;;;2.33;0.87;;;;;;;13.69;58.16;99936.63;5065270;28;20446;-52
2022/04/19 08:28:33;;;;;;;1.23;1.23;;;;;;;13.72;57.67;99929.38;5060588;28;20495;-52
2022/04/19 08:31:00;;;;;;;0.30;0.20;;;;;;;14.27;56.15;99931.19;5061027;28;20515;-52
2022/04/19 08:33:26;;;;;;;0.30;0.20;;;;;;;14.17;51.75;99920.06;5061416;28;20454;-52
2022/04/19 08:35:53;;;;;;;0.53;0.53;;;;;;;14.29;50.87;99926.63;5067961;28;20494;-49
2022/04/19 08:38:20;;;;;;;0.40;0.30;;;;;;;14.36;50.54;99928.91;5067287;28;20528;-49
2022/04/19 08:40:48;;;;;;;0.30;0.20;;;;;;;14.39;50.91;99923.41;5060659;28;20473;-49
2022/04/19 08:43:15;;;;;;;1.73;1.73;;;;;;;14.37;49.61;99921.75;5061615;28;20455;-49
2022/04/19 08:45:42;;;;;;;0.90;0.63;;;;;;;14.35;49.26;99920.94;5067894;28;20481;-49
2022/04/19 08:48:09;;;;;;;0.43;0.40;;;;;;;14.58;49.14;99922.50;5067330;28;20446;-49
2022/04/19 08:50:37;;;;;;;0.50;0.50;;;;;;;14.64;49.51;99917.69;5046086;28;20490;-51
2022/04/19 08:58:36;;;;;;;0.97;0.97;;;;;;;15.08;49.08;99912.72;5060701;28;20547;-50
2022/04/19 09:01:03;;;;;;;0.30;0.20;;;;;;;15.15;49.40;99920.41;5061169;28;20462;-51
2022/04/19 09:03:30;;;;;;;2.43;2.33;;;;;;;15.27;49.80;99917.09;5066892;28;20489;-50
2022/04/19 09:05:57;;;;;;;0.40;0.30;;;;;;;15.29;48.17;99916.06;5067275;28;20903;-50
2022/04/19 09:08:24;;;;;;;0.40;0.30;;;;;;;15.21;47.12;99909.38;5060579;28;20442;-51
2022/04/19 09:11:04;;;;;;;0.30;0.20;;;;;;;15.61;48.96;99910.78;5060215;28;20553;-49
2022/04/19 09:13:30;;;;;;;6.43;1.40;;;;;;;15.61;48.37;99903.59;5064923;28;20481;-49
2022/04/19 09:16:06;;;;;;;0.30;0.20;;;;;;;15.72;47.68;99903.00;5066857;28;20446;-50
2022/04/19 09:18:35;;;;;;;0.40;0.30;;;;;;;15.55;47.36;99909.28;5063877;28;20499;-49
2022/04/19 09:21:04;;;;;;;0.30;0.20;;;;;;;15.84;47.74;99909.50;5060272;28;20519;-50
2022/04/19 09:23:32;;;;;;;0.40;0.30;;;;;;;15.87;47.43;99899.47;5061837;28;20457;-50
2022/04/19 09:26:02;;;;;;;0.30;0.20;;;;;;;15.95;46.42;99899.91;5064891;28;20462;-50
2022/04/19 09:28:29;;;;;;;2.57;2.47;;;;;;;15.77;46.07;99894.72;5046365;28;20451;-49
2022/04/19 09:30:58;;;;;;;0.40;0.30;;;;;;;16.07;47.71;99897.47;5066743;28;20478;-49
2022/04/19 09:33:27;;;;;;;1.53;1.53;;;;;;;16.34;45.99;99898.56;5066945;28;20446;-49
2022/04/19 09:35:59;;;;;;;0.30;0.20;;;;;;;16.42;45.39;99885.53;5047581;28;20445;-49
2022/04/19 09:38:35;;;;;;;4.03;1.20;;;;;;;16.07;44.22;99892.97;5059723;28;20874;-49
2022/04/19 09:41:02;;;;;;;0.30;0.20;;;;;;;16.17;45.25;99891.50;5063654;28;20513;-49
2022/04/19 09:44:09;;;;;;;0.30;0.20;;;;;;;16.71;45.65;99870.41;5065318;28;20824;-49
2022/04/19 09:46:36;;;;;;;0.57;0.57;;;;;;;16.49;45.76;99878.00;5066538;28;20507;-49
2022/04/19 09:49:05;;;;;;;1.67;1.57;;;;;;;16.66;45.13;99872.47;5061919;28;20866;-49
2022/04/19 09:51:33;;;;;;;1.97;0.73;;;;;;;16.49;44.42;99861.91;5059236;28;20478;-52
2022/04/19 09:54:00;;;;;;;0.43;0.40;;;;;;;17.11;44.46;99865.28;5057528;28;20450;-50
2022/04/19 09:56:34;;;;;;;0.30;0.20;;;;;;;16.91;42.51;99862.97;5066115;28;20480;-50
2022/04/19 09:59:17;;;;;;;1.47;1.07;;;;;;;16.82;43.00;99861.72;5065404;28;20949;-50
2022/04/19 10:10:04;;;;;;;0.40;0.30;;;;;;;17.33;40.77;99848.69;5060595;28;20461;-50
2022/04/19 10:12:33;;;;;;;0.30;0.20;;;;;;;17.32;39.35;99846.97;5058805;28;20520;-50
2022/04/19 10:15:03;;;;;;;0.40;0.20;;;;;;;17.57;39.74;99847.13;5059659;28;20836;-49
2022/04/19 10:17:31;;;;;;;1.13;0.80;;;;;;;17.18;40.01;99853.22;5056498;28;20896;-51
2022/04/19 10:20:00;;;;;;;0.40;0.27;;;;;;;17.27;40.38;99849.94;5054704;28;21067;-52
2022/04/19 10:22:27;;;;;;;0.40;0.30;;;;;;;17.35;38.78;99846.75;5059673;28;20474;-50
2022/04/19 10:24:55;;;;;;;0.80;0.80;;;;;;;17.52;38.34;99845.69;5054659;28;20509;-52
2022/04/19 10:27:33;;;;;;;0.40;0.30;;;;;;;17.41;37.41;99849.94;5058109;28;20450;-50
2022/04/19 10:30:03;;;;;;;0.40;0.30;;;;;;;17.47;37.75;99841.47;5061464;28;20536;-50
2022/04/19 10:32:33;;;;;;;1.70;1.33;;;;;;;17.40;38.33;99839.25;5065034;28;20830;-52
2022/04/19 10:35:03;;;;;;;0.40;0.30;;;;;;;17.33;39.68;99841.50;5059732;28;20461;-50
2022/04/19 10:37:30;;;;;;;0.40;0.30;;;;;;;17.44;39.33;99843.50;5065398;28;21069;-52
2022/04/19 10:39:57;;;;;;;0.30;0.20;;;;;;;17.70;38.16;99839.16;5065507;28;20477;-53
2022/04/19 10:42:37;;;;;;;0.60;0.60;;;;;;;17.80;37.75;99836.72;5045784;28;20458;-52
2022/04/19 10:45:13;;;;;;;0.30;0.20;;;;;;;17.56;37.85;99834.66;5032969;28;20491;-52
2022/04/19 10:47:52;;;;;;;0.73;0.73;;;;;;;17.68;37.79;99835.66;5051965;28;21230;-54
2022/04/19 10:50:44;;;;;;;0.30;0.20;;;;;;;17.94;38.05;99829.47;5058968;28;21249;-52
2022/04/19 10:53:12;;;;;;;0.40;0.20;;;;;;;18.27;38.03;99831.75;5059135;28;20506;-51
2022/04/19 10:55:57;;;;;;;0.40;0.30;;;;;;;18.35;36.91;99829.38;5055834;28;20471;-52
2022/04/19 10:58:41;;;;;;;0.40;0.30;;;;;;;18.18;37.08;99829.66;5062671;28;21096;-51
2022/04/19 11:01:28;;;;;;;0.37;0.20;;;;;;;18.10;36.80;99820.41;5046114;28;20502;-52
2022/04/19 11:03:56;;;;;;;0.30;0.20;;;;;;;18.50;36.08;99822.09;5051240;28;20446;-52
2022/04/19 11:06:31;;;;;;;0.50;0.47;;;;;;;18.26;36.54;99821.09;5058972;28;20534;-51
2022/04/19 11:09:08;;;;;;;0.37;0.27;;;;;;;17.92;35.70;99815.25;5065307;28;20456;-52
2022/04/19 11:11:49;;;;;;;1.60;1.50;;;;;;;18.09;35.49;99805.19;5060820;28;20482;-52
2022/04/19 11:14:50;;;;;;;0.40;0.20;;;;;;;18.73;37.04;99816.97;5064626;28;20456;-52
2022/04/19 11:17:26;;;;;;;0.60;0.60;;;;;;;18.37;38.00;99804.22;5061684;28;20457;-52
2022/04/19 11:20:05;;;;;;;0.90;0.90;;;;;;;18.49;38.76;99809.59;5038651;28;20466;-51
2022/04/19 11:22:51;;;;;;;0.40;0.20;;;;;;;18.75;37.57;99806.94;5064728;28;20984;-53
2022/04/19 11:25:40;;;;;;;0.40;0.20;;;;;;;18.77;38.23;99805.88;5063453;28;20925;-50
2022/04/19 11:28:09;;;;;;;0.40;0.20;;;;;;;18.48;38.58;99801.63;5059901;28;20743;-50
2022/04/19 11:30:36;;;;;;;10.33;1.63;;;;;;;18.92;38.11;99794.03;5057560;28;20480;-50
2022/04/19 11:33:04;;;;;;;0.40;0.20;;;;;;;19.40;38.12;99796.84;5061077;28;20941;-50
2022/04/19 11:35:32;;;;;;;0.40;0.20;;;;;;;19.47;35.98;99799.97;5060094;28;20447;-51
2022/04/19 11:38:04;;;;;;;0.40;0.20;;;;;;;19.16;38.52;99798.63;5050973;28;20593;-50
2022/04/19 11:48:50;;;;;;;1.90;1.17;;;;;;;19.27;36.99;99777.16;5066001;28;20447;-49
2022/04/19 11:51:20;;;;;;;1.23;0.93;;;;;;;19.12;36.32;99778.28;5068418;28;20568;-50
2022/04/19 11:53:47;;;;;;;1.37;0.60;;;;;;;19.43;36.81;99776.88;5055889;28;20446;-50
2022/04/19 11:56:14;;;;;;;0.63;0.63;;;;;;;19.33;37.11;99782.13;5050564;28;20482;-52
2022/04/19 11:58:43;;;;;;;1.03;0.93;;;;;;;18.98;38.00;99776.56;5053200;28;20499;-50
2022/04/19 12:01:16;;;;;;;0.40;0.20;;;;;;;18.96;38.61;99780.34;5061135;28;20458;-50
2022/04/19 12:03:46;;;;;;;1.53;1.40;;;;;;;18.76;37.21;99779.03;5063086;28;20503;-50
2022/04/19 12:06:15;;;;;;;2.20;0.83;;;;;;;18.60;38.27;99779.22;5069697;28;21011;-51
2022/04/19 12:08:44;;;;;;;1.60;1.60;;;;;;;19.06;40.26;99774.19;5052047;28;20512;-51
2022/04/19 12:11:15;;;;;;;4.00;0.97;;;;;;;19.00;38.16;99785.41;5067470;28;20512;-50
2022/04/19 12:13:47;;;;;;;0.60;0.60;;;;;;;18.25;39.18;99769.09;5050225;28;20493;-51
2022/04/19 12:16:53;;;;;;;0.70;0.50;;;;;;;18.52;37.75;99771.72;5068427;28;20877;-50
2022/04/19 12:19:32;;;;;;;0.37;0.27;;;;;;;18.36;37.67;99765.63;5055151;28;20485;-51
2022/04/19 12:22:02;;;;;;;0.40;0.30;;;;;;;19.03;37.72;99760.06;5062487;28;20443;-51
2022/04/19 12:24:30;;;;;;;0.40;0.40;;;;;;;18.89;38.42;99764.59;5066234;28;20491;-51
2022/04/19 12:27:08;;;;;;;0.50;0.40;;;;;;;18.82;37.77;99765.16;5052026;28;20460;-51
2022/04/19 12:29:56;;;;;;;1.07;0.60;;;;;;;18.66;37.03;99767.22;5050152;28;20465;-51